createdAt,value
2023-02-06T00:04:14.273Z,1025.91
2023-02-06T00:09:14.253Z,1025.85
2023-02-06T00:14:14.210Z,1025.70
2023-02-06T00:19:14.138Z,1025.76
2023-02-06T00:24:14.075Z,1025.71
2023-02-06T00:29:14.046Z,1025.77
2023-02-06T00:34:13.983Z,1025.67
2023-02-06T00:39:13.964Z,1025.66
2023-02-06T00:44:13.858Z,1025.64
2023-02-06T00:49:13.829Z,1025.63
2023-02-06T00:54:13.796Z,1025.56
2023-02-06T00:59:13.715Z,1025.58
2023-02-06T01:04:13.658Z,1025.58
2023-02-06T01:09:13.628Z,1025.57
2023-02-06T01:14:13.565Z,1025.54
2023-02-06T01:19:14.022Z,1025.60
2023-02-06T01:24:13.432Z,1025.51
2023-02-06T01:29:13.380Z,1025.54
2023-02-06T01:34:13.366Z,1025.66
2023-02-06T01:39:13.311Z,1025.58
2023-02-06T01:44:13.271Z,1025.72
2023-02-06T01:49:13.250Z,1025.65
2023-02-06T01:54:13.122Z,1025.60
2023-02-06T01:59:13.065Z,1025.56
2023-02-06T02:04:13.030Z,1025.55
2023-02-06T02:09:14.360Z,1025.58
2023-02-06T02:14:12.886Z,1025.56
2023-02-06T02:19:12.919Z,1025.56
2023-02-06T02:24:12.817Z,1025.51
2023-02-06T02:29:12.755Z,1025.44
2023-02-06T02:34:12.713Z,1025.44
2023-02-06T02:39:12.661Z,1025.40
2023-02-06T02:44:12.575Z,1025.38
2023-02-06T02:49:12.541Z,1025.42
2023-02-06T02:54:12.477Z,1025.54
2023-02-06T02:59:12.421Z,1025.51
2023-02-06T03:04:12.369Z,1025.51
2023-02-06T03:09:12.317Z,1025.58
2023-02-06T03:14:12.284Z,1025.55
2023-02-06T03:19:12.224Z,1025.64
2023-02-06T03:24:12.165Z,1025.54
2023-02-06T03:29:12.138Z,1025.50
2023-02-06T03:34:12.063Z,1025.51
2023-02-06T03:39:11.996Z,1025.45
2023-02-06T03:44:11.926Z,1025.49
2023-02-06T03:49:11.910Z,1025.53
2023-02-06T03:54:11.877Z,1025.51
2023-02-06T03:59:11.793Z,1025.36
2023-02-06T04:04:11.760Z,1025.41
2023-02-06T04:09:11.695Z,1025.39
2023-02-06T04:14:11.617Z,1025.43
2023-02-06T04:19:11.582Z,1025.40
2023-02-06T04:24:11.532Z,1025.40
2023-02-06T04:29:11.494Z,1025.56
2023-02-06T04:34:11.435Z,1025.54
2023-02-06T04:39:11.364Z,1025.63
2023-02-06T04:44:11.296Z,1025.57
2023-02-06T04:49:11.252Z,1025.70
2023-02-06T04:54:11.222Z,1025.84
2023-02-06T04:59:11.168Z,1025.74
2023-02-06T05:04:11.110Z,1025.76
2023-02-06T05:09:11.026Z,1025.75
2023-02-06T05:14:10.993Z,1025.63
2023-02-06T05:19:10.893Z,1025.54
2023-02-06T05:24:10.896Z,1025.50
2023-02-06T05:29:10.822Z,1025.49
2023-02-06T05:34:10.781Z,1025.43
2023-02-06T05:39:10.727Z,1025.51
2023-02-06T05:44:10.639Z,1025.48
2023-02-06T05:49:10.595Z,1025.35
2023-02-06T05:54:10.552Z,1025.35
2023-02-06T05:59:10.491Z,1025.39
2023-02-06T06:04:10.497Z,1025.28
2023-02-06T06:09:10.396Z,1025.32
2023-02-06T06:14:10.352Z,1025.32
2023-02-06T06:19:10.278Z,1025.43
2023-02-06T06:24:10.261Z,1025.42
2023-02-06T06:29:10.197Z,1025.27
2023-02-06T06:34:10.119Z,1025.31
2023-02-06T06:39:10.076Z,1025.24
2023-02-06T06:44:10.006Z,1025.20
2023-02-06T06:49:09.983Z,1025.20
2023-02-06T06:54:09.905Z,1025.21
2023-02-06T06:59:09.842Z,1025.23
2023-02-06T07:04:09.838Z,1025.25
2023-02-06T07:09:09.772Z,1025.29
2023-02-06T07:14:09.721Z,1025.24
2023-02-06T07:19:09.640Z,1025.26
2023-02-06T07:24:09.587Z,1025.18
2023-02-06T07:29:09.554Z,1025.23
2023-02-06T07:34:09.489Z,1025.26
2023-02-06T07:39:09.471Z,1025.18
2023-02-06T07:44:09.382Z,1025.17
2023-02-06T07:49:09.350Z,1025.16
2023-02-06T07:54:09.271Z,1025.06
2023-02-06T07:59:09.227Z,1025.06
2023-02-06T08:04:09.220Z,1025.14
2023-02-06T08:09:09.143Z,1025.17
2023-02-06T08:14:09.039Z,1025.10
2023-02-06T08:19:09.037Z,1025.12
2023-02-06T08:24:08.945Z,1025.31
2023-02-06T08:29:08.913Z,1025.20
2023-02-06T08:34:08.861Z,1025.05
2023-02-06T08:39:08.780Z,1024.95
2023-02-06T08:44:08.747Z,1025.13
2023-02-06T08:49:08.686Z,1025.11
2023-02-06T08:54:08.617Z,1025.12
2023-02-06T08:59:08.593Z,1025.12
2023-02-06T09:04:08.509Z,1025.16
2023-02-06T09:09:08.477Z,1025.19
2023-02-06T09:14:08.425Z,1025.25
2023-02-06T09:19:08.320Z,1025.27
2023-02-06T09:24:08.310Z,1025.19
2023-02-06T09:29:08.431Z,1025.17
2023-02-06T09:34:08.192Z,1025.24
2023-02-06T09:39:08.120Z,1025.24
2023-02-06T09:44:08.051Z,1025.31
2023-02-06T09:49:08.036Z,1025.31
2023-02-06T09:54:07.969Z,1025.30
2023-02-06T09:59:07.936Z,1025.25
2023-02-06T10:04:07.871Z,1025.34
2023-02-06T10:09:07.818Z,1025.37
2023-02-06T10:14:07.786Z,1025.38
2023-02-06T10:19:07.703Z,1025.22
2023-02-06T10:24:07.641Z,1025.11
2023-02-06T10:29:07.569Z,1025.00
2023-02-06T10:34:07.540Z,1025.00
2023-02-06T10:39:07.490Z,1024.98
2023-02-06T10:44:07.438Z,1024.86
2023-02-06T10:49:07.388Z,1024.90
2023-02-06T10:54:07.310Z,1024.78
2023-02-06T10:59:07.287Z,1024.74
2023-02-06T11:04:07.258Z,1024.63
2023-02-06T11:09:07.247Z,1024.58
2023-02-06T11:14:07.097Z,1024.59
2023-02-06T11:19:07.060Z,1024.47
2023-02-06T11:24:07.006Z,1024.43
2023-02-06T11:29:15.816Z,1024.37
2023-02-06T11:34:06.935Z,1024.34
2023-02-06T11:39:06.834Z,1024.28
2023-02-06T11:44:06.818Z,1024.19
2023-02-06T11:49:06.785Z,1024.26
2023-02-06T11:54:06.696Z,1024.12
2023-02-06T11:59:07.160Z,1024.09
2023-02-06T12:04:06.604Z,1024.06
2023-02-06T12:09:06.556Z,1024.11
2023-02-06T12:14:06.529Z,1024.21
2023-02-06T12:19:06.475Z,1024.26
2023-02-06T12:24:06.386Z,1024.25
2023-02-06T12:29:06.331Z,1024.20
2023-02-06T12:34:06.257Z,1024.19
2023-02-06T12:39:06.228Z,1024.09
2023-02-06T12:44:06.134Z,1024.21
2023-02-06T12:49:06.132Z,1024.04
2023-02-06T12:54:06.099Z,1023.95
2023-02-06T12:59:06.067Z,1023.89
2023-02-06T13:04:05.910Z,1023.85
2023-02-06T13:09:05.856Z,1023.82
2023-02-06T13:14:05.853Z,1023.87
2023-02-06T13:19:05.824Z,1023.85
2023-02-06T13:24:05.737Z,1023.82
2023-02-06T13:29:05.686Z,1023.74
2023-02-06T13:34:05.638Z,1023.68
2023-02-06T13:39:05.614Z,1023.70
2023-02-06T13:44:05.523Z,1023.59
2023-02-06T13:49:05.482Z,1023.47
2023-02-06T13:54:05.416Z,1023.52
2023-02-06T13:59:05.340Z,1023.51
2023-02-06T14:04:05.305Z,1023.53
2023-02-06T14:09:05.470Z,1023.51
2023-02-06T14:14:05.284Z,1023.53
2023-02-06T14:19:05.242Z,1023.55
2023-02-06T14:24:05.103Z,1023.62
2023-02-06T14:29:05.020Z,1023.65
2023-02-06T14:34:05.084Z,1023.60
2023-02-06T14:39:04.947Z,1023.58
2023-02-06T14:44:04.889Z,1023.65
2023-02-06T14:49:04.863Z,1023.59
2023-02-06T14:54:04.756Z,1023.62
2023-02-06T14:59:04.718Z,1023.68
2023-02-06T15:04:04.589Z,1023.75
2023-02-06T15:09:04.571Z,1023.75
2023-02-06T15:14:04.547Z,1023.71
2023-02-06T15:19:04.474Z,1023.70
2023-02-06T15:24:04.417Z,1023.72
2023-02-06T15:29:04.389Z,1023.61
2023-02-06T15:34:04.338Z,1023.50
2023-02-06T15:39:04.250Z,1023.46
2023-02-06T15:44:04.232Z,1023.43
2023-02-06T15:49:04.178Z,1023.33
2023-02-06T15:54:04.149Z,1023.32
2023-02-06T15:59:04.067Z,1023.38
2023-02-06T16:04:04.015Z,1023.40
2023-02-06T16:09:03.932Z,1023.49
2023-02-06T16:14:04.275Z,1023.43
2023-02-06T16:19:03.818Z,1023.40
2023-02-06T16:24:03.824Z,1023.29
2023-02-06T16:29:03.762Z,1023.28
2023-02-06T16:34:03.708Z,1023.27
2023-02-06T16:39:04.766Z,1023.31
2023-02-06T16:44:03.560Z,1023.30
2023-02-06T16:49:03.523Z,1023.31
2023-02-06T16:54:03.447Z,1023.28
2023-02-06T16:59:03.429Z,1023.34
2023-02-06T17:04:03.348Z,1023.39
2023-02-06T17:09:03.344Z,1023.36
2023-02-06T17:14:03.293Z,1023.36
2023-02-06T17:19:03.188Z,1023.35
2023-02-06T17:24:03.099Z,1023.28
2023-02-06T17:29:11.901Z,1023.35
2023-02-06T17:34:03.015Z,1023.30
2023-02-06T17:39:02.937Z,1023.43
2023-02-06T17:44:02.901Z,1023.43
2023-02-06T17:49:02.839Z,1023.45
2023-02-06T17:54:03.313Z,1023.42
2023-02-06T17:59:02.709Z,1023.35
2023-02-06T18:04:02.663Z,1023.32
2023-02-06T18:09:02.593Z,1023.29
2023-02-06T18:14:02.547Z,1023.27
2023-02-06T18:19:02.518Z,1023.26
2023-02-06T18:24:02.441Z,1023.30
2023-02-06T18:29:02.415Z,1023.33
2023-02-06T18:34:02.334Z,1023.44
2023-02-06T18:39:02.300Z,1023.44
2023-02-06T18:44:02.237Z,1023.57
2023-02-06T18:49:02.188Z,1023.60
2023-02-06T18:54:02.103Z,1023.60
2023-02-06T18:59:02.088Z,1023.69
2023-02-06T19:04:02.026Z,1023.61
2023-02-06T19:09:01.943Z,1023.56
2023-02-06T19:14:01.915Z,1023.55
2023-02-06T19:19:01.874Z,1023.51
2023-02-06T19:24:01.808Z,1023.47
2023-02-06T19:29:01.775Z,1023.53
2023-02-06T19:34:01.713Z,1023.58
2023-02-06T19:39:01.667Z,1023.63
2023-02-06T19:44:01.599Z,1023.63
2023-02-06T19:49:01.563Z,1023.60
2023-02-06T19:54:01.474Z,1023.72
2023-02-06T19:59:01.470Z,1023.76
2023-02-06T20:04:01.410Z,1023.85
2023-02-06T20:09:01.302Z,1023.81
2023-02-06T20:14:01.312Z,1023.87
2023-02-06T20:19:01.212Z,1023.83
2023-02-06T20:24:01.142Z,1023.83
2023-02-06T20:29:01.154Z,1023.77
2023-02-06T20:34:01.069Z,1023.80
2023-02-06T20:39:00.992Z,1023.91
2023-02-06T20:44:00.974Z,1023.92
2023-02-06T20:49:00.900Z,1023.92
2023-02-06T20:54:00.856Z,1023.89
2023-02-06T20:59:00.829Z,1023.81
2023-02-06T21:04:00.740Z,1023.74
2023-02-06T21:09:00.680Z,1023.64
2023-02-06T21:14:00.683Z,1023.63
2023-02-06T21:19:00.549Z,1023.57
2023-02-06T21:24:00.540Z,1023.56
2023-02-06T21:29:00.473Z,1023.59
2023-02-06T21:34:00.444Z,1023.67
2023-02-06T21:39:00.387Z,1023.70
2023-02-06T21:44:00.310Z,1023.62
2023-02-06T21:49:00.281Z,1023.66
2023-02-06T21:54:00.232Z,1023.63
2023-02-06T21:59:00.161Z,1023.55
2023-02-06T22:04:00.120Z,1023.60
2023-02-06T22:09:00.040Z,1023.62
2023-02-06T22:14:00.055Z,1023.52
2023-02-06T22:18:59.940Z,1023.47
2023-02-06T22:23:59.887Z,1023.46
2023-02-06T22:28:59.861Z,1023.44
2023-02-06T22:33:59.771Z,1023.41
2023-02-06T22:38:59.713Z,1023.43
2023-02-06T22:43:59.683Z,1023.38
2023-02-06T22:48:59.653Z,1023.38
2023-02-06T22:53:59.523Z,1023.27
2023-02-06T22:58:59.511Z,1023.28
2023-02-06T23:03:59.482Z,1023.33
2023-02-06T23:08:59.396Z,1023.29
2023-02-06T23:13:59.331Z,1023.31
2023-02-06T23:18:59.323Z,1023.53
2023-02-06T23:23:59.255Z,1023.38
2023-02-06T23:31:22.773Z,1023.51
2023-02-06T23:36:22.708Z,1023.35
2023-02-06T23:41:22.641Z,1023.28
2023-02-06T23:46:22.652Z,1023.27
2023-02-06T23:51:22.513Z,1023.39
2023-02-06T23:56:22.513Z,1023.64
